Time;durP1;ratioP1;P1;durP2;ratioP2;P2;SDS_P1;SDS_P2;PMS_P1;PMS_P2;Temp;Humidity;BMP_temperature;BMP_pressure;BME280_temperature;BME280_humidity;BME280_pressure;Samples;Min_cycle;Max_cycle;Signal;HPM_P1;HPM_P2
2022/10/29 00:01:49;;;;;;;68.03;38.53;;;;;;;17.33;75.86;102374.81;5002774;28;20053;-79
2022/10/29 00:04:19;;;;;;;64.88;37.15;;;;;;;16.22;75.75;102190.63;4997486;28;20319;-82
2022/10/29 00:06:49;;;;;;;55.22;36.30;;;;;;;16.87;75.53;102299.25;4993216;28;20049;-82
2022/10/29 00:09:18;;;;;;;64.32;38.70;;;;;;;17.10;75.66;102336.59;4992606;28;20055;-79
2022/10/29 00:11:48;;;;;;;60.15;37.42;;;;;;;17.32;75.86;102369.56;4975444;28;20061;-82
2022/10/29 00:14:18;;;;;;;68.97;39.00;;;;;;;17.02;76.12;102317.66;4973259;28;20268;-78
2022/10/29 00:16:45;;;;;;;64.28;36.28;;;;;;;16.39;75.59;102224.81;4975145;28;20441;-79
2022/10/29 00:19:11;;;;;;;59.30;36.22;;;;;;;16.34;75.96;102215.50;4975045;28;20259;-81
2022/10/29 00:21:40;;;;;;;57.83;36.55;;;;;;;17.12;75.67;102355.25;4954994;28;20157;-81
2022/10/29 00:24:11;;;;;;;67.07;38.95;;;;;;;17.02;75.86;102344.47;4962870;28;20180;-81
2022/10/29 00:26:44;;;;;;;62.70;38.42;;;;;;;16.65;75.70;102278.81;4956188;28;20073;-82
2022/10/29 00:29:17;;;;;;;69.15;39.67;;;;;;;17.26;75.70;102382.53;4962835;28;20104;-80
2022/10/29 00:31:43;;;;;;;62.80;36.15;;;;;;;16.81;75.13;102293.56;4965139;28;20054;-81
2022/10/29 00:34:11;;;;;;;67.00;37.45;;;;;;;17.20;74.95;102326.72;4944111;28;20082;-82
2022/10/29 00:36:37;;;;;;;64.57;38.03;;;;;;;17.34;74.80;102348.81;4947504;28;20054;-80
2022/10/29 00:39:11;;;;;;;62.97;37.85;;;;;;;17.10;75.18;102341.94;4982043;28;20258;-81
2022/10/29 00:41:38;;;;;;;59.70;36.35;;;;;;;16.90;75.38;102321.44;4984492;28;20050;-80
2022/10/29 00:44:27;;;;;;;61.30;37.05;;;;;;;17.17;75.40;102369.09;4972572;28;20050;-81
2022/10/29 00:47:17;;;;;;;64.10;36.38;;;;;;;16.85;75.67;102328.03;4983685;28;20518;-79
2022/10/29 00:49:50;;;;;;;63.60;37.03;;;;;;;16.73;75.63;102302.28;4981605;28;20053;-81
2022/10/29 00:52:22;;;;;;;61.70;36.22;;;;;;;17.15;75.50;102379.97;4972012;28;20471;-82
2022/10/29 00:54:56;;;;;;;63.50;36.47;;;;;;;17.14;75.92;102374.75;4952907;28;20050;-80
2022/10/29 00:57:48;;;;;;;59.17;34.72;;;;;;;17.02;75.50;102357.91;4951501;28;20245;-80
2022/10/29 01:00:21;;;;;;;62.83;34.95;;;;;;;16.73;75.81;102312.16;4954379;28;20062;-81
2022/10/29 01:02:55;;;;;;;53.85;34.58;;;;;;;16.99;75.34;102350.09;4944462;28;20675;-81
2022/10/29 01:05:24;;;;;;;62.55;36.30;;;;;;;15.92;75.43;102181.59;4947683;28;20763;-79
2022/10/29 01:07:54;;;;;;;58.85;35.55;;;;;;;16.93;75.85;102347.97;4951806;28;20280;-82
2022/10/29 01:10:34;;;;;;;56.78;36.95;;;;;;;16.90;75.89;102358.97;4951535;28;20041;-81
2022/10/29 01:13:21;;;;;;;65.72;36.42;;;;;;;16.55;76.03;102301.19;4963594;28;20158;-80
2022/10/29 01:16:15;;;;;;;60.10;34.67;;;;;;;16.88;76.06;102359.94;4967888;28;20530;-80
2022/10/29 01:19:06;;;;;;;57.80;32.65;;;;;;;16.91;76.41;102368.72;4965108;28;20046;-81
2022/10/29 01:21:39;;;;;;;59.85;34.20;;;;;;;16.06;75.87;102222.41;4951777;28;20049;-81
2022/10/29 01:24:33;;;;;;;58.00;33.30;;;;;;;16.56;75.75;102300.22;4979503;28;20246;-81
2022/10/29 01:27:19;;;;;;;58.00;32.92;;;;;;;16.59;75.59;102319.56;4969057;28;20056;-80
2022/10/29 01:29:55;;;;;;;56.88;33.17;;;;;;;16.78;76.01;102351.03;4968119;28;20579;-82
2022/10/29 01:33:01;;;;;;;59.53;31.98;;;;;;;16.68;75.91;102325.97;4963212;28;20653;-79
2022/10/29 01:35:47;;;;;;;57.85;31.55;;;;;;;16.81;76.10;102342.69;4967190;28;20517;-79
2022/10/29 01:38:33;;;;;;;54.17;31.80;;;;;;;16.38;75.66;102274.06;4964660;28;20054;-81
2022/10/29 01:41:12;;;;;;;61.17;30.15;;;;;;;16.81;75.44;102340.00;4965419;28;20052;-80
2022/10/29 01:44:10;;;;;;;47.65;29.20;;;;;;;16.78;75.18;102326.88;4965109;28;20541;-80
2022/10/29 01:46:46;;;;;;;55.63;30.42;;;;;;;16.71;75.54;102309.59;4966675;28;20408;-82
2022/10/29 01:49:25;;;;;;;49.38;29.52;;;;;;;16.70;75.63;102304.38;4992602;28;20150;-82
2022/10/29 01:51:57;;;;;;;50.58;29.13;;;;;;;16.81;75.47;102321.25;4985611;28;20234;-81
2022/10/29 01:54:24;;;;;;;;;;;;;;;16.79;75.44;102325.03;4988558;28;20072;-81
2022/10/29 01:56:59;;;;;;;51.80;28.05;;;;;;;16.77;75.09;102327.84;4983366;28;20205;-81
2022/10/29 01:59:31;;;;;;;50.95;27.23;;;;;;;16.69;75.13;102321.44;4947021;28;20050;-82
2022/10/29 02:02:48;;;;;;;47.92;29.00;;;;;;;16.53;75.47;102287.06;4943378;28;20572;-81
2022/10/29 02:05:31;;;;;;;48.47;27.75;;;;;;;16.61;75.39;102309.56;4921031;28;20699;-81
2022/10/29 02:08:22;;;;;;;45.72;28.02;;;;;;;16.65;75.15;102308.31;4930083;28;20375;-81
2022/10/29 02:11:00;;;;;;;47.38;27.20;;;;;;;16.44;75.36;102269.97;4935095;28;20765;-80
2022/10/29 02:13:44;;;;;;;51.90;29.37;;;;;;;16.73;75.00;102317.53;4950663;28;20552;-80
2022/10/29 02:16:17;;;;;;;51.97;27.97;;;;;;;16.59;75.06;102294.59;4957933;28;20073;-80
2022/10/29 02:18:49;;;;;;;50.65;29.13;;;;;;;16.73;75.34;102317.53;4948842;28;20462;-80
2022/10/29 02:21:20;;;;;;;47.58;27.63;;;;;;;16.61;75.29;102303.34;4953115;28;20322;-80
2022/10/29 02:23:50;;;;;;;50.95;27.95;;;;;;;15.99;75.14;102196.13;4952798;28;20111;-81
2022/10/29 02:26:25;;;;;;;57.13;29.88;;;;;;;16.13;75.42;102228.94;4937841;28;20140;-81
2022/10/29 02:28:54;;;;;;;53.45;28.33;;;;;;;16.51;75.31;102281.88;4959763;28;20391;-82
2022/10/29 02:31:24;;;;;;;52.25;29.77;;;;;;;16.52;75.50;102285.38;4935911;28;20442;-80
2022/10/29 02:33:53;;;;;;;50.28;28.83;;;;;;;16.64;75.09;102297.72;4929549;28;20410;-80
2022/10/29 02:36:23;;;;;;;48.83;28.00;;;;;;;16.16;74.39;102199.19;4928129;28;20072;-79
2022/10/29 02:38:50;;;;;;;46.47;27.27;;;;;;;16.85;74.37;102298.53;4944110;28;20050;-82
2022/10/29 02:41:21;;;;;;;43.55;27.05;;;;;;;16.66;73.99;102263.56;4947959;28;20056;-82
2022/10/29 02:43:53;;;;;;;54.22;27.10;;;;;;;16.56;74.33;102281.47;4951945;28;20045;-79
2022/10/29 02:46:22;;;;;;;46.60;28.60;;;;;;;16.65;74.74;102311.00;4944819;28;20163;-80
2022/10/29 02:48:56;;;;;;;54.42;27.30;;;;;;;16.65;74.50;102310.13;4975253;28;20370;-81
2022/10/29 02:51:25;;;;;;;53.33;29.60;;;;;;;16.41;75.07;102281.81;4966210;28;20486;-80
2022/10/29 02:53:54;;;;;;;51.92;28.50;;;;;;;16.53;74.62;102312.06;4948244;28;20083;-83
2022/10/29 02:56:23;;;;;;;55.13;27.85;;;;;;;16.47;74.94;102301.88;4955548;28;20130;-79
2022/10/29 02:58:50;;;;;;;47.90;28.10;;;;;;;16.06;75.10;102233.97;4950682;28;20049;-80
2022/10/29 03:01:26;;;;;;;43.22;27.75;;;;;;;15.20;75.18;102095.91;4976549;28;20049;-80
2022/10/29 03:04:05;;;;;;;39.63;27.40;;;;;;;16.45;75.39;102306.50;4955504;28;20057;-81
2022/10/29 03:06:39;;;;;;;51.35;29.02;;;;;;;15.94;75.44;102225.16;4951281;28;20621;-80
2022/10/29 03:09:12;;;;;;;55.42;29.52;;;;;;;15.91;75.73;102225.41;4967627;28;20142;-81
2022/10/29 03:11:43;;;;;;;49.33;29.58;;;;;;;15.47;75.78;102149.72;4928839;28;20153;-80
2022/10/29 03:14:17;;;;;;;52.60;29.02;;;;;;;16.35;75.66;102302.94;4953089;28;20261;-81
2022/10/29 03:16:52;;;;;;;53.67;27.83;;;;;;;16.26;76.08;102298.38;4971874;28;20048;-81
2022/10/29 03:19:22;;;;;;;54.22;30.08;;;;;;;15.93;75.59;102255.59;4930335;28;20397;-81
2022/10/29 03:21:55;;;;;;;49.55;30.05;;;;;;;16.18;75.90;102296.34;4934074;28;20111;-81
2022/10/29 03:24:23;;;;;;;53.10;29.98;;;;;;;15.87;75.92;102245.41;4956215;28;20105;-81
2022/10/29 03:26:50;;;;;;;49.58;28.77;;;;;;;16.16;75.86;102284.91;4948456;28;20291;-82
2022/10/29 03:29:16;;;;;;;53.25;30.38;;;;;;;16.26;75.88;102299.22;4938970;28;20076;-81
2022/10/29 03:31:47;;;;;;;54.90;27.75;;;;;;;16.38;75.71;102302.66;4934129;28;20061;-81
2022/10/29 03:34:15;;;;;;;51.20;28.65;;;;;;;16.15;75.65;102272.50;4927891;28;20053;-80
2022/10/29 03:36:42;;;;;;;44.53;26.15;;;;;;;16.31;75.94;102301.50;4935934;28;20441;-81
2022/10/29 03:39:12;;;;;;;52.55;30.00;;;;;;;16.13;75.52;102266.44;4962897;28;20564;-80
2022/10/29 03:41:43;;;;;;;44.92;27.67;;;;;;;15.68;75.17;102191.69;4962033;28;20296;-81
2022/10/29 03:44:14;;;;;;;47.50;26.70;;;;;;;15.97;75.28;102242.78;4959813;28;20130;-80
2022/10/29 03:46:41;;;;;;;44.53;27.13;;;;;;;16.10;75.50;102274.75;4953526;28;20053;-80
2022/10/29 03:49:10;;;;;;;48.05;28.17;;;;;;;16.18;75.37;102299.03;4952356;28;20048;-82
2022/10/29 03:51:38;;;;;;;50.60;25.73;;;;;;;15.66;74.90;102207.06;4952954;28;20476;-82
2022/10/29 03:54:05;;;;;;;44.90;26.60;;;;;;;16.08;75.10;102279.38;4954870;28;20632;-82
2022/10/29 03:56:32;;;;;;;41.80;24.10;;;;;;;16.17;75.21;102290.16;4952443;28;20477;-80
2022/10/29 03:58:59;;;;;;;45.30;24.52;;;;;;;16.11;74.91;102285.31;4951087;28;20157;-80
2022/10/29 04:01:25;;;;;;;43.78;24.55;;;;;;;16.15;74.25;102292.09;4980524;28;20975;-81
2022/10/29 04:03:56;;;;;;;41.63;22.38;;;;;;;16.03;74.56;102272.56;4960472;28;20243;-79
2022/10/29 04:06:25;;;;;;;42.78;24.25;;;;;;;16.07;74.67;102270.50;4951276;28;20538;-81
2022/10/29 04:08:52;;;;;;;38.58;22.73;;;;;;;15.60;74.40;102189.66;4949369;28;20042;-81
2022/10/29 04:11:30;;;;;;;39.85;23.77;;;;;;;15.26;74.37;102138.16;4953197;28;20602;-82
2022/10/29 04:14:00;;;;;;;36.08;23.20;;;;;;;16.13;74.28;102290.53;4956321;28;20355;-79
2022/10/29 04:16:29;;;;;;;36.65;23.33;;;;;;;15.94;74.36;102254.59;4929148;28;20151;-81
2022/10/29 04:18:58;;;;;;;38.88;21.77;;;;;;;16.07;73.96;102280.34;4962522;28;20344;-81
2022/10/29 04:21:25;;;;;;;40.17;24.27;;;;;;;16.17;73.95;102302.72;4958129;28;20487;-80
2022/10/29 04:24:12;;;;;;;38.10;22.70;;;;;;;16.17;73.77;102300.88;4954538;28;20049;-81
2022/10/29 04:27:02;;;;;;;38.35;23.10;;;;;;;16.10;73.86;102288.13;4961571;28;20256;-79
2022/10/29 04:29:54;;;;;;;43.83;24.02;;;;;;;15.96;73.42;102271.41;4983403;28;20533;-81
2022/10/29 04:32:21;;;;;;;42.17;22.80;;;;;;;16.15;73.62;102297.47;4974968;28;20424;-81
2022/10/29 04:34:48;;;;;;;41.80;22.45;;;;;;;16.02;73.52;102270.88;4972963;28;20123;-82
2022/10/29 04:37:15;;;;;;;39.20;21.55;;;;;;;16.02;73.88;102264.69;4966289;28;20054;-81
2022/10/29 04:39:42;;;;;;;41.35;23.95;;;;;;;16.13;73.40;102298.59;4953406;28;20380;-80
2022/10/29 04:42:18;;;;;;;38.63;21.90;;;;;;;16.08;73.00;102284.75;4958296;28;20053;-81
2022/10/29 04:44:44;;;;;;;42.72;23.67;;;;;;;16.06;72.91;102282.19;4966256;28;20057;-81
2022/10/29 04:47:13;;;;;;;40.95;24.48;;;;;;;16.01;72.89;102285.25;4961574;28;20050;-80
2022/10/29 04:49:45;;;;;;;40.90;23.33;;;;;;;15.88;73.07;102263.19;4976978;28;20532;-80
2022/10/29 04:52:13;;;;;;;40.60;22.95;;;;;;;15.56;73.57;102209.66;4981510;28;20056;-80
2022/10/29 04:54:42;;;;;;;40.70;23.80;;;;;;;15.50;72.88;102200.31;4983319;28;20064;-79
2022/10/29 04:57:09;;;;;;;38.88;23.02;;;;;;;15.33;72.67;102163.44;4981453;28;20590;-78
2022/10/29 04:59:39;;;;;;;41.17;22.58;;;;;;;15.89;72.76;102254.16;4983582;28;20560;-80
2022/10/29 05:02:10;;;;;;;38.03;23.55;;;;;;;16.08;73.20;102300.81;4949023;28;20049;-79
2022/10/29 05:04:43;;;;;;;39.22;23.08;;;;;;;15.96;73.16;102284.78;4948920;28;20569;-79
2022/10/29 05:07:12;;;;;;;39.80;21.08;;;;;;;15.94;72.71;102284.06;4976387;28;20061;-80
2022/10/29 05:09:39;;;;;;;47.00;22.13;;;;;;;15.78;73.38;102259.59;4975068;28;20382;-79
2022/10/29 05:12:06;;;;;;;38.83;21.67;;;;;;;15.99;73.23;102291.72;4967854;28;20470;-81
2022/10/29 05:14:33;;;;;;;42.83;21.80;;;;;;;15.42;72.97;102207.31;4977885;28;20058;-81
2022/10/29 05:16:59;;;;;;;42.92;21.23;;;;;;;16.00;72.76;102299.63;4998216;28;20061;-81
2022/10/29 05:19:29;;;;;;;36.75;20.23;;;;;;;15.89;72.36;102270.22;4984020;28;20046;-81
2022/10/29 05:21:55;;;;;;;37.55;21.13;;;;;;;15.33;72.51;102177.66;4979730;28;20579;-80
2022/10/29 05:24:22;;;;;;;40.53;21.25;;;;;;;15.99;72.58;102284.53;4983394;28;20598;-81
2022/10/29 05:26:48;;;;;;;33.97;22.08;;;;;;;15.79;72.57;102253.25;4969562;28;20558;-81
2022/10/29 05:29:21;;;;;;;39.00;21.45;;;;;;;15.99;72.46;102279.16;4982474;28;20053;-80
2022/10/29 05:31:48;;;;;;;39.85;20.95;;;;;;;16.06;72.32;102292.06;4980093;28;20665;-80
2022/10/29 05:34:20;;;;;;;35.17;19.90;;;;;;;16.02;72.52;102280.75;4984089;28;20513;-80
2022/10/29 05:36:47;;;;;;;40.67;21.08;;;;;;;16.07;72.03;102291.06;4975865;28;20050;-80
2022/10/29 05:39:14;;;;;;;31.63;17.73;;;;;;;16.08;71.86;102287.41;4978993;28;20052;-81
2022/10/29 05:41:40;;;;;;;36.72;19.00;;;;;;;15.42;70.96;102172.50;4976195;28;20537;-80
2022/10/29 05:44:07;;;;;;;33.60;18.50;;;;;;;16.13;71.68;102286.03;4961833;28;20625;-81
2022/10/29 05:46:34;;;;;;;32.03;17.38;;;;;;;15.76;71.27;102232.09;4956868;28;20053;-81
2022/10/29 05:49:00;;;;;;;36.70;18.08;;;;;;;15.96;71.40;102265.19;4981643;28;20185;-81
2022/10/29 05:51:29;;;;;;;31.73;17.17;;;;;;;15.97;71.38;102261.53;5013514;28;20049;-79
2022/10/29 05:53:58;;;;;;;31.42;18.05;;;;;;;16.14;71.32;102278.84;5014688;28;20104;-82
2022/10/29 05:56:26;;;;;;;30.42;17.58;;;;;;;15.90;71.03;102245.16;5008386;28;20148;-78
2022/10/29 05:58:53;;;;;;;33.78;17.92;;;;;;;16.01;71.20;102277.22;5006484;28;20436;-79
2022/10/29 06:01:23;;;;;;;32.80;17.50;;;;;;;16.07;71.00;102283.91;4998226;28;20041;-80
2022/10/29 06:03:50;;;;;;;30.30;16.83;;;;;;;15.37;70.47;102179.09;4999548;28;20154;-81
2022/10/29 06:06:18;;;;;;;34.28;17.40;;;;;;;15.92;71.29;102269.97;4989660;28;20388;-81
2022/10/29 06:08:44;;;;;;;31.63;17.88;;;;;;;15.37;71.00;102189.81;4976702;28;20514;-80
2022/10/29 06:11:11;;;;;;;33.47;17.13;;;;;;;15.92;71.32;102269.97;4980377;28;20359;-81
2022/10/29 06:13:43;;;;;;;33.38;19.90;;;;;;;15.72;71.17;102238.69;4980529;28;20141;-79
2022/10/29 06:16:10;;;;;;;34.35;18.00;;;;;;;15.63;71.40;102224.19;4920640;28;20050;-79
2022/10/29 06:18:37;;;;;;;30.67;18.13;;;;;;;15.90;71.09;102260.34;4913712;28;20145;-81
2022/10/29 06:21:04;;;;;;;27.23;18.15;;;;;;;16.02;70.87;102286.97;4971659;28;20681;-80
2022/10/29 06:23:31;;;;;;;37.55;18.52;;;;;;;16.17;71.28;102314.25;4979142;28;20480;-80
2022/10/29 06:25:59;;;;;;;39.88;19.27;;;;;;;16.21;71.29;102309.47;4960779;28;20192;-82
2022/10/29 06:28:26;;;;;;;33.30;19.33;;;;;;;16.21;71.57;102296.09;4967879;28;20065;-80
2022/10/29 06:31:00;;;;;;;29.02;19.42;;;;;;;16.19;71.75;102300.72;4961064;28;20066;-80
2022/10/29 06:33:27;;;;;;;35.75;19.92;;;;;;;16.15;71.38;102301.97;4961380;28;20637;-78
2022/10/29 06:35:58;;;;;;;35.08;19.33;;;;;;;16.13;71.05;102293.22;4961581;28;20102;-80
2022/10/29 06:38:25;;;;;;;37.63;19.77;;;;;;;16.20;71.58;102305.97;4959787;28;20421;-79
2022/10/29 06:40:55;;;;;;;35.60;19.00;;;;;;;15.90;71.03;102261.22;4944105;28;20066;-80
2022/10/29 06:43:21;;;;;;;30.52;18.65;;;;;;;15.82;71.13;102236.91;4959211;28;20403;-80
2022/10/29 06:45:49;;;;;;;32.13;18.02;;;;;;;16.32;71.06;102320.13;4962121;28;20500;-78
2022/10/29 06:48:18;;;;;;;31.33;18.27;;;;;;;16.34;70.98;102318.19;4960050;28;20499;-80
2022/10/29 06:50:49;;;;;;;30.52;17.80;;;;;;;16.05;70.38;102268.94;4960374;28;20046;-80
2022/10/29 06:53:16;;;;;;;27.65;16.60;;;;;;;16.12;70.92;102280.81;4961301;28;20050;-77
2022/10/29 06:55:43;;;;;;;36.45;19.10;;;;;;;16.33;70.83;102313.78;4961140;28;20496;-80
2022/10/29 06:58:15;;;;;;;37.88;19.23;;;;;;;16.31;69.96;102307.72;4968977;28;20617;-80
2022/10/29 07:00:43;;;;;;;38.95;18.10;;;;;;;15.93;69.99;102234.16;4955502;28;20054;-80
2022/10/29 07:03:17;;;;;;;35.57;18.40;;;;;;;16.34;70.25;102295.91;4974451;28;20268;-79
2022/10/29 07:05:53;;;;;;;35.90;17.95;;;;;;;16.13;70.94;102261.91;4973285;28;20444;-80
2022/10/29 07:08:20;;;;;;;34.83;17.50;;;;;;;16.64;70.40;102337.94;4960163;28;20057;-81
2022/10/29 07:10:50;;;;;;;29.45;16.05;;;;;;;15.46;69.60;102148.03;4960852;28;20527;-82
2022/10/29 07:13:17;;;;;;;36.83;16.65;;;;;;;16.54;69.75;102315.59;4958532;28;20393;-80
2022/10/29 07:15:51;;;;;;;29.48;16.83;;;;;;;16.80;69.67;102351.75;4955736;28;20069;-78
2022/10/29 07:18:17;;;;;;;28.08;18.02;;;;;;;16.11;70.40;102226.38;4949992;28;20055;-79
2022/10/29 07:20:45;;;;;;;43.35;18.08;;;;;;;16.93;70.21;102350.66;4955830;28;20543;-79
2022/10/29 07:23:16;;;;;;;27.30;17.45;;;;;;;16.55;69.45;102285.94;4953592;28;20354;-79
2022/10/29 07:25:46;;;;;;;31.13;17.83;;;;;;;17.00;69.73;102357.19;4961697;28;20498;-79
2022/10/29 07:28:16;;;;;;;34.78;18.33;;;;;;;17.05;69.47;102354.94;4960812;28;20570;-78
2022/10/29 07:30:44;;;;;;;33.63;17.65;;;;;;;17.14;68.18;102354.13;4959227;28;20497;-78
2022/10/29 07:33:16;;;;;;;37.80;18.30;;;;;;;17.30;67.82;102358.94;4960723;28;20112;-81
2022/10/29 07:35:43;;;;;;;30.13;18.60;;;;;;;17.06;67.17;102314.56;4973125;28;20069;-79
2022/10/29 07:38:14;;;;;;;31.63;19.65;;;;;;;17.49;66.57;102360.81;4968246;28;20393;-80
2022/10/29 07:40:47;;;;;;;37.08;18.58;;;;;;;17.29;65.78;102317.84;4961802;28;20577;-78
2022/10/29 07:43:14;;;;;;;45.50;19.42;;;;;;;17.51;65.42;102345.44;4959076;28;20587;-80
2022/10/29 07:45:43;;;;;;;39.30;20.33;;;;;;;17.45;65.32;102340.59;4956184;28;20164;-80
2022/10/29 07:48:10;;;;;;;36.70;20.25;;;;;;;17.78;64.92;102368.06;4970791;28;20585;-79
2022/10/29 07:50:37;;;;;;;40.20;21.17;;;;;;;17.52;64.81;102312.22;4958218;28;20050;-80
2022/10/29 07:53:09;;;;;;;35.97;20.13;;;;;;;17.56;65.40;102310.94;4959878;28;20141;-80
2022/10/29 07:55:35;;;;;;;36.10;20.90;;;;;;;17.92;65.18;102360.47;4960428;28;20140;-78
2022/10/29 07:58:05;;;;;;;45.30;23.35;;;;;;;17.68;64.82;102309.81;4958986;28;20050;-79
2022/10/29 08:00:38;;;;;;;38.42;21.63;;;;;;;17.92;64.62;102340.81;4961619;28;20046;-79
2022/10/29 08:03:06;;;;;;;52.00;23.55;;;;;;;18.19;64.11;102355.34;4973584;28;20927;-80
2022/10/29 08:05:34;;;;;;;43.67;23.80;;;;;;;18.23;63.81;102335.22;4982159;28;20212;-77
2022/10/29 08:08:01;;;;;;;57.28;25.45;;;;;;;18.34;64.00;102357.44;4966413;28;20520;-81
2022/10/29 08:10:29;;;;;;;43.83;21.02;;;;;;;18.04;64.22;102312.78;4961994;28;20522;-80
2022/10/29 08:13:01;;;;;;;32.30;19.35;;;;;;;17.90;64.28;102254.13;4960874;28;20054;-78
2022/10/29 08:15:29;;;;;;;;;;;;;;;18.62;63.00;102351.25;4959974;28;20089;-82
2022/10/29 08:17:57;;;;;;;38.10;19.42;;;;;;;18.60;63.66;102353.28;4954765;28;19925;-80
2022/10/29 08:20:28;;;;;;;37.33;20.90;;;;;;;18.69;63.77;102347.00;4970174;28;20050;-81
2022/10/29 08:22:58;;;;;;;41.25;20.20;;;;;;;18.76;63.39;102340.06;4963039;28;20046;-80
2022/10/29 08:25:26;;;;;;;35.10;20.17;;;;;;;18.78;63.05;102340.75;4964103;28;20078;-80
2022/10/29 08:28:02;;;;;;;46.20;24.42;;;;;;;18.99;62.73;102344.06;4962254;28;20081;-79
2022/10/29 08:30:30;;;;;;;43.50;24.10;;;;;;;19.10;62.92;102350.25;4960968;28;20129;-81
2022/10/29 08:32:56;;;;;;;49.28;25.27;;;;;;;19.17;62.60;102351.34;4958005;28;20062;-81
2022/10/29 08:35:27;;;;;;;48.40;26.33;;;;;;;19.01;62.94;102306.25;4957448;28;20050;-83
2022/10/29 08:37:53;;;;;;;50.03;27.95;;;;;;;18.86;62.79;102262.84;4959220;28;20120;-83
2022/10/29 08:40:42;;;;;;;46.75;25.95;;;;;;;18.98;62.31;102266.16;4977659;28;20152;-83
2022/10/29 08:43:29;;;;;;;50.78;26.77;;;;;;;19.56;62.51;102351.06;4972269;28;20583;-82
2022/10/29 08:46:01;;;;;;;50.88;27.20;;;;;;;19.57;62.82;102347.41;4951232;28;20129;-81
2022/10/29 08:49:01;;;;;;;50.85;24.83;;;;;;;19.63;61.56;102325.22;4951702;28;20274;-82
2022/10/29 08:51:41;;;;;;;45.03;24.42;;;;;;;19.46;61.81;102285.66;4954573;28;20522;-80
2022/10/29 08:54:13;;;;;;;46.08;25.25;;;;;;;19.88;61.07;102336.25;4957140;28;20066;-81
2022/10/29 08:57:01;;;;;;;40.90;23.13;;;;;;;19.80;61.40;102312.78;4953734;28;20512;-81
2022/10/29 08:59:35;;;;;;;40.47;22.50;;;;;;;20.09;60.43;102346.69;4959871;28;20439;-81
2022/10/29 09:02:12;;;;;;;41.15;23.15;;;;;;;19.95;59.34;102291.50;4953480;28;20065;-82
2022/10/29 09:04:41;;;;;;;41.08;23.25;;;;;;;20.32;58.96;102334.41;4972434;28;20050;-82
2022/10/29 09:07:23;;;;;;;37.05;22.10;;;;;;;20.50;58.80;102347.81;4977655;28;20073;-81
2022/10/29 09:09:59;;;;;;;42.28;20.75;;;;;;;20.65;57.96;102350.81;4962655;28;20050;-82
2022/10/29 09:12:55;;;;;;;45.50;25.55;;;;;;;20.73;58.19;102350.00;4958952;28;20362;-82
2022/10/29 09:15:43;;;;;;;49.83;24.42;;;;;;;20.47;58.26;102307.69;4966324;28;20061;-82
2022/10/29 09:18:43;;;;;;;49.25;26.27;;;;;;;20.58;57.62;102293.09;4973447;28;20045;-80
2022/10/29 09:21:51;;;;;;;47.83;24.63;;;;;;;20.85;56.94;102308.22;4961225;28;20046;-83
2022/10/29 09:24:57;;;;;;;40.58;20.70;;;;;;;20.87;56.95;102292.72;4967609;28;20052;-80
2022/10/29 09:27:53;;;;;;;41.22;22.92;;;;;;;21.23;57.19;102336.53;4964037;28;20446;-83
2022/10/29 09:30:29;;;;;;;43.95;23.65;;;;;;;21.13;57.20;102296.16;4982479;28;20058;-81
2022/10/29 09:33:09;;;;;;;41.47;23.77;;;;;;;20.54;57.11;102163.06;4961919;28;20056;-81
2022/10/29 09:35:44;;;;;;;45.53;23.85;;;;;;;20.80;57.29;102183.72;4962241;28;20050;-80
2022/10/29 09:38:24;;;;;;;48.63;28.58;;;;;;;21.52;56.39;102282.06;4971423;28;20056;-82
2022/10/29 09:40:50;;;;;;;55.92;27.08;;;;;;;21.70;57.00;102303.56;4976628;28;20216;-82
2022/10/29 09:43:32;;;;;;;45.03;26.58;;;;;;;22.02;55.87;102318.06;4978331;28;20053;-81
2022/10/29 09:46:12;;;;;;;54.70;27.77;;;;;;;22.14;55.85;102321.28;4961895;28;20415;-82
2022/10/29 09:48:55;;;;;;;47.70;25.95;;;;;;;22.25;54.98;102320.91;4976615;28;20045;-84
2022/10/29 09:51:38;;;;;;;52.05;26.17;;;;;;;22.30;55.86;102329.38;4959853;28;20586;-82
2022/10/29 09:54:08;;;;;;;49.67;25.65;;;;;;;22.43;55.37;102317.16;4965107;28;20632;-81
2022/10/29 09:56:41;;;;;;;48.13;27.15;;;;;;;22.58;54.25;102310.03;4980671;28;20327;-79
2022/10/29 09:59:34;;;;;;;48.47;26.77;;;;;;;22.38;53.61;102253.59;4960103;28;20046;-81
2022/10/29 10:02:01;;;;;;;40.33;25.17;;;;;;;22.39;54.06;102239.03;4963278;28;20054;-81
2022/10/29 10:04:50;;;;;;;45.30;26.45;;;;;;;22.49;53.04;102240.72;4963997;28;20054;-82
2022/10/29 10:07:20;;;;;;;42.28;24.40;;;;;;;22.56;53.65;102236.28;4961924;28;20569;-81
2022/10/29 10:09:58;;;;;;;38.08;22.65;;;;;;;22.33;52.84;102165.84;4983317;28;20062;-80
2022/10/29 10:12:36;;;;;;;35.03;22.08;;;;;;;23.37;52.31;102307.28;4963365;28;20503;-82
2022/10/29 10:15:13;;;;;;;46.38;24.02;;;;;;;23.25;52.55;102280.63;4959847;28;20064;-81
2022/10/29 10:17:58;;;;;;;39.42;22.60;;;;;;;23.54;51.87;102299.88;4963645;28;20049;-82
2022/10/29 10:20:34;;;;;;;43.28;24.55;;;;;;;23.57;51.44;102289.53;4959009;28;20336;-82
2022/10/29 10:23:16;;;;;;;41.25;24.92;;;;;;;23.08;51.23;102173.38;4960447;28;20045;-84
2022/10/29 10:25:44;;;;;;;41.25;23.75;;;;;;;22.80;51.38;102108.91;4958835;28;20553;-81
2022/10/29 10:28:35;;;;;;;40.55;23.00;;;;;;;23.87;50.93;102260.63;4963553;28;20053;-83
2022/10/29 10:31:12;;;;;;;40.10;22.58;;;;;;;23.66;51.10;102209.78;4978925;28;20056;-83
2022/10/29 10:33:53;;;;;;;42.13;24.88;;;;;;;24.08;50.23;102242.81;4986734;28;20148;-83
2022/10/29 10:36:23;;;;;;;47.30;23.77;;;;;;;23.86;50.62;102195.72;4961272;28;20053;-82
2022/10/29 10:38:59;;;;;;;49.95;23.48;;;;;;;24.02;50.49;102214.53;4967068;28;20050;-83
2022/10/29 10:41:34;;;;;;;41.15;24.75;;;;;;;24.36;50.25;102251.13;4989220;28;20171;-81
2022/10/29 10:44:21;;;;;;;41.22;23.58;;;;;;;24.40;49.67;102236.16;4969945;28;20065;-81
2022/10/29 10:46:52;;;;;;;40.33;24.20;;;;;;;24.59;49.53;102250.19;4952879;28;20050;-83
2022/10/29 10:49:35;;;;;;;39.38;24.75;;;;;;;24.59;49.40;102261.06;4943231;28;20061;-81
2022/10/29 10:52:34;;;;;;;44.50;23.55;;;;;;;24.34;49.58;102220.63;4936524;28;20050;-82
2022/10/29 10:55:21;;;;;;;45.72;22.30;;;;;;;24.51;49.42;102230.25;4935028;28;20058;-81
2022/10/29 10:58:22;;;;;;;50.13;23.73;;;;;;;24.40;49.25;102230.72;4952330;28;20133;-81
2022/10/29 11:01:17;;;;;;;39.83;22.77;;;;;;;24.24;49.57;102223.63;4935040;28;20058;-82
2022/10/29 11:03:47;;;;;;;41.08;23.60;;;;;;;24.18;49.71;102237.13;4933206;28;20165;-81
2022/10/29 11:06:19;;;;;;;46.72;24.75;;;;;;;24.10;49.62;102221.75;4935179;28;20149;-81
2022/10/29 11:09:04;;;;;;;45.22;25.17;;;;;;;23.86;50.31;102231.84;4941349;28;20440;-82
2022/10/29 11:11:34;;;;;;;48.63;25.38;;;;;;;22.76;51.31;102104.88;4938282;28;20263;-78
2022/10/29 11:14:09;;;;;;;42.78;24.10;;;;;;;23.51;51.30;102206.22;4937155;28;20047;-82
2022/10/29 11:16:50;;;;;;;44.03;24.88;;;;;;;23.56;51.50;102230.06;4934213;28;20234;-83
2022/10/29 11:19:40;;;;;;;40.58;24.45;;;;;;;22.89;51.77;102128.66;4928006;28;20573;-83
2022/10/29 11:22:26;;;;;;;39.58;22.92;;;;;;;23.39;52.18;102210.38;4941029;28;20054;-80
2022/10/29 11:25:15;;;;;;;48.15;24.77;;;;;;;23.39;52.78;102215.81;4956003;28;20062;-79
2022/10/29 11:28:11;;;;;;;45.88;24.63;;;;;;;23.34;52.96;102212.81;4967060;28;20181;-81
2022/10/29 11:30:51;;;;;;;46.25;25.95;;;;;;;22.65;53.12;102108.00;4956504;28;20057;-81
2022/10/29 11:33:25;;;;;;;43.05;25.50;;;;;;;23.16;52.28;102159.78;4935045;28;20521;-82
2022/10/29 11:36:05;;;;;;;48.05;26.92;;;;;;;23.01;52.73;102134.50;4937331;28;20511;-81
2022/10/29 11:38:47;;;;;;;46.78;23.23;;;;;;;23.29;53.18;102209.81;4936147;28;20141;-82
2022/10/29 11:41:33;;;;;;;45.78;25.88;;;;;;;23.02;53.19;102160.56;4910531;29;20059;-82